Time;durP1;ratioP1;P1;durP2;ratioP2;P2;SDS_P1;SDS_P2;PMS_P1;PMS_P2;Temp;Humidity;BMP_temperature;BMP_pressure;BME280_temperature;BME280_humidity;BME280_pressure;Samples;Min_cycle;Max_cycle;Signal;HPM_P1;HPM_P2
2021/03/25 00:01:15;;;;;;;1.00;1.00;;;;;;;-5.56;65.57;93461.88;5047841;28;20028;-47
2021/03/25 00:03:41;;;;;;;1.55;1.55;;;;;;;-5.45;65.38;93461.44;5046335;28;20547;-47
2021/03/25 00:06:06;;;;;;;1.52;1.45;;;;;;;-5.54;67.10;93456.78;5047651;28;20033;-46
2021/03/25 00:08:33;;;;;;;5.13;3.45;;;;;;;-5.50;65.97;93454.69;5035067;28;20036;-46
2021/03/25 00:10:58;;;;;;;0.52;0.52;;;;;;;-5.46;65.19;93451.88;5027753;28;20529;-48
2021/03/25 00:13:24;;;;;;;0.75;0.75;;;;;;;-5.34;66.74;93447.53;5027813;28;20029;-48
2021/03/25 00:15:49;;;;;;;0.88;0.82;;;;;;;-5.15;67.58;93449.06;5027646;28;20033;-46
2021/03/25 00:18:15;;;;;;;2.22;1.85;;;;;;;-5.11;68.94;93447.69;5036197;28;20028;-48
2021/03/25 00:20:42;;;;;;;0.63;0.63;;;;;;;-5.16;68.54;93434.88;5041142;28;20028;-50
2021/03/25 00:23:07;;;;;;;0.50;0.50;;;;;;;-4.97;68.73;93447.13;5041169;28;20113;-48
2021/03/25 00:25:36;;;;;;;1.23;1.17;;;;;;;-4.88;68.37;93443.66;5047479;28;20074;-47
2021/03/25 00:28:02;;;;;;;0.60;0.60;;;;;;;-4.89;67.88;93448.31;5047781;28;20025;-50
2021/03/25 00:30:30;;;;;;;2.15;1.50;;;;;;;-4.84;68.17;93436.19;5045118;28;20503;-48
2021/03/25 00:32:57;;;;;;;0.50;0.50;;;;;;;-4.88;67.52;93443.66;5036924;28;20509;-48
2021/03/25 00:35:25;;;;;;;1.27;1.13;;;;;;;-5.09;67.74;93439.91;5033919;28;20065;-50
2021/03/25 00:37:50;;;;;;;0.70;0.70;;;;;;;-5.02;67.08;93442.31;5037386;28;20029;-48
2021/03/25 00:40:16;;;;;;;0.40;0.40;;;;;;;-4.92;66.48;93441.13;5037931;28;20017;-47
2021/03/25 00:42:42;;;;;;;0.20;0.20;;;;;;;-5.07;67.17;93426.03;5038536;28;20025;-48
2021/03/25 00:45:34;;;;;;;0.20;0.20;;;;;;;-4.82;66.68;93436.47;5035824;28;20082;-49
2021/03/25 00:48:00;;;;;;;0.30;0.30;;;;;;;-4.95;68.17;93433.19;5039622;28;20087;-50
2021/03/25 00:50:49;;;;;;;1.10;1.10;;;;;;;-4.94;67.25;93432.75;5038215;28;20026;-50
2021/03/25 00:53:19;;;;;;;0.82;0.82;;;;;;;-4.82;67.40;93426.47;5037710;28;20108;-53
2021/03/25 00:55:44;;;;;;;0.95;0.95;;;;;;;-4.94;67.14;93422.00;5032382;28;20029;-52
2021/03/25 00:58:10;;;;;;;2.13;1.98;;;;;;;-4.92;66.96;93424.97;5026900;28;20053;-50
2021/03/25 01:00:38;;;;;;;0.35;0.35;;;;;;;-4.93;66.40;93423.47;5030043;28;20539;-50
2021/03/25 01:03:04;;;;;;;0.52;0.52;;;;;;;-5.03;67.00;93432.75;5030494;28;20436;-48
2021/03/25 01:05:30;;;;;;;1.23;1.15;;;;;;;-5.08;66.67;93424.53;5030588;28;20030;-50
2021/03/25 01:08:30;;;;;;;0.68;0.60;;;;;;;-5.00;67.32;93421.09;5030545;28;20040;-49
2021/03/25 01:11:30;;;;;;;0.45;0.45;;;;;;;-4.88;67.66;93428.28;5030518;28;20026;-48
2021/03/25 01:14:08;;;;;;;1.95;1.52;;;;;;;-5.01;68.78;93426.94;5041497;28;20038;-48
2021/03/25 01:16:37;;;;;;;0.93;0.93;;;;;;;-5.01;69.56;93426.94;5030668;28;20033;-49
2021/03/25 01:19:04;;;;;;;;;;;;;;;-4.89;69.75;93426.00;5030727;28;20040;-48
2021/03/25 01:21:30;;;;;;;1.13;0.75;;;;;;;-4.84;70.34;93428.09;5030348;28;19996;-52
2021/03/25 01:23:56;;;;;;;0.50;0.50;;;;;;;-4.74;69.80;93406.09;5012925;28;20113;-49
2021/03/25 01:26:22;;;;;;;0.20;0.20;;;;;;;-4.74;68.47;93427.63;5030233;28;20037;-51
2021/03/25 01:28:47;;;;;;;0.40;0.40;;;;;;;-4.57;66.64;93430.00;5032404;28;20037;-50
2021/03/25 01:31:13;;;;;;;1.52;1.42;;;;;;;-4.84;66.22;93406.56;5048531;28;20069;-48
2021/03/25 01:33:38;;;;;;;2.03;1.75;;;;;;;-4.67;65.73;93424.63;5050003;28;20056;-52
2021/03/25 01:36:04;;;;;;;0.68;0.68;;;;;;;-4.59;65.53;93421.63;5050235;28;20103;-49
2021/03/25 01:38:30;;;;;;;0.38;0.38;;;;;;;-4.88;67.35;93425.56;5049889;28;20486;-48
2021/03/25 01:40:58;;;;;;;1.65;1.13;;;;;;;-4.73;67.13;93433.78;5049827;28;20070;-49
2021/03/25 01:43:26;;;;;;;0.47;0.47;;;;;;;-4.79;67.09;93422.88;5050124;28;20033;-48
2021/03/25 01:46:16;;;;;;;0.40;0.40;;;;;;;-4.89;68.77;93426.75;5049814;27;20044;-52
2021/03/25 01:48:43;;;;;;;12.52;3.22;;;;;;;-4.77;68.93;93422.41;5048851;28;20060;-50
2021/03/25 01:51:23;;;;;;;3.72;3.10;;;;;;;-4.68;68.83;93422.41;5049697;28;20032;-49
2021/03/25 01:54:27;;;;;;;0.95;0.88;;;;;;;-4.70;66.73;93430.19;5049880;28;20078;-49
2021/03/25 01:57:18;;;;;;;2.10;2.00;;;;;;;-4.59;66.10;93429.72;5047736;28;20446;-53
2021/03/25 01:59:55;;;;;;;2.67;2.38;;;;;;;-4.63;66.46;93425.22;5049630;28;20037;-53
2021/03/25 02:02:24;;;;;;;1.33;1.23;;;;;;;-4.84;66.96;93434.25;5049582;28;20025;-51
2021/03/25 02:05:01;;;;;;;1.65;1.55;;;;;;;-4.90;68.08;93436.06;5049661;28;20041;-47
2021/03/25 02:07:50;;;;;;;0.95;0.95;;;;;;;-4.87;67.21;93431.69;5049505;28;20085;-49
2021/03/25 02:10:30;;;;;;;4.72;4.40;;;;;;;-4.79;65.96;93425.56;5049105;28;20526;-48
2021/03/25 02:13:11;;;;;;;2.28;2.17;;;;;;;-4.84;67.28;93439.63;5048325;28;20033;-53
2021/03/25 02:15:41;;;;;;;0.82;0.82;;;;;;;-5.02;67.23;93434.25;5049487;28;20093;-48
2021/03/25 02:18:45;;;;;;;1.35;1.33;;;;;;;-5.01;66.58;93441.13;5049372;28;20493;-50
2021/03/25 02:21:29;;;;;;;0.43;0.43;;;;;;;-5.10;68.43;93451.91;5082819;28;20033;-51
2021/03/25 02:24:26;;;;;;;2.17;1.60;;;;;;;-5.00;67.11;93442.63;5048020;28;20090;-49
2021/03/25 02:26:56;;;;;;;2.25;2.05;;;;;;;-4.87;67.83;93442.47;5049185;28;20029;-49
2021/03/25 02:29:54;;;;;;;1.60;1.50;;;;;;;-4.96;67.88;93448.59;5047925;28;20031;-50
2021/03/25 02:32:27;;;;;;;1.27;1.17;;;;;;;-5.00;69.82;93450.69;5047890;28;20053;-48
2021/03/25 02:34:56;;;;;;;3.55;2.80;;;;;;;-4.91;70.57;93453.38;5047885;28;20037;-48
2021/03/25 02:37:30;;;;;;;3.83;1.17;;;;;;;-5.07;69.80;93448.31;5047790;28;20109;-49
2021/03/25 02:40:19;;;;;;;8.30;1.98;;;;;;;-4.83;68.49;93446.50;5048032;28;20051;-50
2021/03/25 02:42:47;;;;;;;4.85;2.92;;;;;;;-4.88;67.84;93460.56;5047578;28;20029;-50
2021/03/25 02:45:19;;;;;;;3.17;2.85;;;;;;;-4.79;69.69;93452.50;5048976;28;20113;-52
2021/03/25 02:47:47;;;;;;;5.38;4.95;;;;;;;-4.74;70.05;93456.50;5048792;28;20025;-50
2021/03/25 02:50:47;;;;;;;2.85;2.55;;;;;;;-4.78;69.79;93458.59;5047509;28;20025;-50
2021/03/25 02:53:20;;;;;;;0.73;0.73;;;;;;;-4.74;69.13;93470.72;5047721;28;20520;-51
2021/03/25 02:55:46;;;;;;;1.00;1.00;;;;;;;-4.67;68.36;93469.69;5047745;28;20153;-53
2021/03/25 02:58:17;;;;;;;0.20;0.20;;;;;;;-4.57;66.64;93473.13;5048550;28;20537;-50
2021/03/25 03:00:50;;;;;;;1.05;1.05;;;;;;;-4.50;66.07;93470.84;5048743;28;20556;-50
2021/03/25 03:03:28;;;;;;;0.57;0.57;;;;;;;-4.40;66.49;93474.28;5047574;28;20025;-48
2021/03/25 03:05:54;;;;;;;0.60;0.60;;;;;;;-4.67;66.82;93470.44;5047451;28;20032;-48
2021/03/25 03:08:25;;;;;;;2.47;1.80;;;;;;;-4.78;68.07;93472.06;5047352;28;20036;-47
2021/03/25 03:11:02;;;;;;;1.45;1.35;;;;;;;-4.84;68.24;93474.63;5047279;28;20402;-48
2021/03/25 03:13:29;;;;;;;1.63;1.52;;;;;;;-4.88;68.53;93476.72;5048664;28;20051;-49
2021/03/25 03:16:00;;;;;;;1.85;1.75;;;;;;;-4.86;67.36;93484.34;5047227;28;20489;-47
2021/03/25 03:18:50;;;;;;;0.82;0.82;;;;;;;-4.92;68.61;93491.53;5047187;28;20058;-49
2021/03/25 03:21:25;;;;;;;0.93;0.93;;;;;;;-4.80;67.14;93488.69;5047264;28;20044;-50
2021/03/25 03:23:51;;;;;;;0.32;0.32;;;;;;;-4.88;66.75;93481.38;5048330;28;20025;-49
2021/03/25 03:26:25;;;;;;;1.88;1.77;;;;;;;-4.94;67.77;93494.69;5047008;28;20025;-50
2021/03/25 03:28:53;;;;;;;0.47;0.47;;;;;;;-5.01;67.77;93502.31;5047086;28;20029;-50
2021/03/25 03:31:28;;;;;;;0.77;0.77;;;;;;;-5.24;68.74;93498.22;5048224;28;20033;-53
2021/03/25 03:33:59;;;;;;;0.93;0.93;;;;;;;-5.02;68.51;93506.16;5046922;28;20047;-47
2021/03/25 03:36:25;;;;;;;1.75;1.42;;;;;;;-5.03;68.01;93507.38;5047982;28;20033;-53
2021/03/25 03:38:52;;;;;;;2.20;1.75;;;;;;;-5.11;68.68;93508.88;5046724;28;20025;-52
2021/03/25 03:41:31;;;;;;;1.20;1.20;;;;;;;-4.91;67.25;93515.31;5046867;28;20112;-50
2021/03/25 03:44:00;;;;;;;1.35;1.35;;;;;;;-4.78;67.97;93517.84;5046806;28;20550;-53
2021/03/25 03:46:28;;;;;;;2.35;1.20;;;;;;;-4.84;68.27;93520.41;5048148;28;20044;-49
2021/03/25 03:49:02;;;;;;;2.00;1.90;;;;;;;-4.97;70.09;93529.81;5046866;28;20105;-51
2021/03/25 03:51:33;;;;;;;2.25;2.15;;;;;;;-4.88;69.66;93527.13;5047866;28;20025;-52
2021/03/25 03:54:00;;;;;;;2.33;2.22;;;;;;;-4.93;69.47;93531.16;5047634;28;20024;-52
2021/03/25 03:56:41;;;;;;;3.80;3.47;;;;;;;-4.83;68.32;93532.66;5045526;28;20112;-51
2021/03/25 03:59:15;;;;;;;1.90;1.80;;;;;;;-4.74;68.27;93534.59;5046556;28;20144;-51
2021/03/25 04:01:48;;;;;;;1.75;1.65;;;;;;;-4.73;69.17;93539.56;5046577;28;20052;-46
2021/03/25 04:04:23;;;;;;;2.05;1.95;;;;;;;-4.76;68.53;93510.06;5046665;28;20033;-47
2021/03/25 04:06:56;;;;;;;1.63;1.58;;;;;;;-4.62;67.82;93541.81;5046495;28;20485;-48
2021/03/25 04:09:50;;;;;;;2.33;1.98;;;;;;;-4.68;67.97;93546.31;5047779;28;20033;-47
2021/03/25 04:12:20;;;;;;;3.30;3.10;;;;;;;-4.88;67.64;93551.38;5047043;28;20040;-48
2021/03/25 04:14:47;;;;;;;1.25;1.25;;;;;;;-5.15;68.83;93544.00;5047763;28;20083;-48
2021/03/25 04:17:18;;;;;;;3.08;2.20;;;;;;;-5.01;68.87;93554.19;5047658;28;20029;-48
2021/03/25 04:19:45;;;;;;;3.45;3.25;;;;;;;-5.28;68.68;93527.22;5047530;28;20025;-47
2021/03/25 04:22:17;;;;;;;3.83;3.50;;;;;;;-5.30;69.29;93548.44;5046322;28;20028;-49
2021/03/25 04:24:53;;;;;;;1.10;1.10;;;;;;;-5.08;69.99;93559.09;5046479;28;20029;-51
2021/03/25 04:27:22;;;;;;;1.92;1.83;;;;;;;-4.99;68.41;93561.81;5046049;28;20057;-52
2021/03/25 04:29:48;;;;;;;;;;;;;;;-4.78;68.05;93561.69;5046676;28;20021;-52
2021/03/25 04:32:13;;;;;;;5.68;4.20;;;;;;;-4.82;68.13;93557.66;5041938;28;19965;-50
2021/03/25 04:34:39;;;;;;;0.57;0.57;;;;;;;-4.68;69.17;93563.19;5047897;28;20036;-53
2021/03/25 04:37:06;;;;;;;5.55;2.28;;;;;;;-4.52;69.61;93569.47;5049620;28;20025;-49
2021/03/25 04:39:32;;;;;;;0.47;0.47;;;;;;;-4.52;68.72;93564.84;5050870;28;20054;-50
2021/03/25 04:41:57;;;;;;;0.63;0.63;;;;;;;-4.63;68.43;93568.00;5049870;28;20082;-49
2021/03/25 04:44:36;;;;;;;1.48;0.93;;;;;;;-4.61;68.59;93548.69;5050691;28;20017;-49
2021/03/25 04:47:04;;;;;;;0.30;0.30;;;;;;;-4.54;68.93;93563.78;5050745;28;20036;-48
2021/03/25 04:49:40;;;;;;;6.68;1.02;;;;;;;-4.59;69.52;93569.81;5049733;28;20036;-50
2021/03/25 04:52:09;;;;;;;1.40;1.40;;;;;;;-4.58;69.78;93574.72;5049581;28;20037;-49
2021/03/25 04:54:38;;;;;;;1.20;1.17;;;;;;;-4.39;70.01;93576.22;5050621;28;20032;-48
2021/03/25 04:57:24;;;;;;;0.85;0.85;;;;;;;-4.18;68.98;93574.56;5050736;28;20275;-49
2021/03/25 04:59:51;;;;;;;0.70;0.70;;;;;;;-4.08;69.30;93578.75;5050589;28;20056;-51
2021/03/25 05:02:16;;;;;;;1.98;1.88;;;;;;;-3.94;69.04;93570.00;5049287;28;20033;-51
2021/03/25 05:04:45;;;;;;;0.45;0.45;;;;;;;-3.79;70.24;93575.53;5050507;28;20512;-49
2021/03/25 05:07:25;;;;;;;0.77;0.77;;;;;;;-3.64;69.93;93587.94;5049443;28;20021;-48
2021/03/25 05:09:52;;;;;;;0.98;0.90;;;;;;;-3.53;68.74;93588.19;5049252;28;20025;-50
2021/03/25 05:12:18;;;;;;;0.45;0.45;;;;;;;-3.46;68.06;93585.16;5050435;28;20429;-48
2021/03/25 05:14:44;;;;;;;3.60;3.25;;;;;;;-3.52;68.34;93589.69;5047238;28;20257;-46
2021/03/25 05:17:50;;;;;;;0.30;0.30;;;;;;;-3.46;67.78;93598.66;5049206;28;20021;-46
2021/03/25 05:20:33;;;;;;;0.47;0.47;;;;;;;-3.35;66.79;93600.88;5068046;28;20151;-52
2021/03/25 05:23:13;;;;;;;0.70;0.70;;;;;;;-3.68;68.12;93600.81;5038439;28;20041;-48
2021/03/25 05:25:42;;;;;;;1.05;1.05;;;;;;;-3.84;68.54;93595.78;5038652;28;20550;-50
2021/03/25 05:28:23;;;;;;;0.73;0.73;;;;;;;-3.57;68.82;93601.09;5040199;28;20040;-47
2021/03/25 05:30:50;;;;;;;1.05;1.05;;;;;;;-3.32;67.21;93600.72;5039674;28;20049;-48
2021/03/25 05:33:18;;;;;;;0.65;0.65;;;;;;;-3.40;66.95;93596.84;5039401;28;20023;-51
2021/03/25 05:35:55;;;;;;;0.20;0.20;;;;;;;-3.53;67.91;93590.16;5040209;28;20029;-46
2021/03/25 05:38:21;;;;;;;0.60;0.60;;;;;;;-3.56;68.59;93588.34;5039552;28;20021;-49
2021/03/25 05:40:56;;;;;;;6.93;1.38;;;;;;;-3.56;68.42;93586.41;5028030;28;20072;-49
2021/03/25 05:43:49;;;;;;;0.45;0.45;;;;;;;-3.51;69.09;93585.78;5042977;28;20462;-53
2021/03/25 05:46:36;;;;;;;1.63;0.88;;;;;;;-3.65;68.80;93586.44;5042781;28;20044;-50
2021/03/25 05:49:20;;;;;;;0.55;0.55;;;;;;;-3.38;69.37;93602.53;5049854;28;20117;-51
2021/03/25 05:52:13;;;;;;;0.75;0.75;;;;;;;-3.01;69.13;93594.28;5049062;28;20029;-48
2021/03/25 05:55:04;;;;;;;0.47;0.47;;;;;;;-2.44;67.74;93593.75;5046446;28;20108;-43
2021/03/25 05:58:22;;;;;;;2.05;1.92;;;;;;;-1.82;65.93;93590.97;5028605;28;20459;-45
2021/03/25 06:01:06;;;;;;;0.73;0.73;;;;;;;-1.35;64.83;93590.03;5028874;28;20038;-45
2021/03/25 06:03:33;;;;;;;1.58;1.45;;;;;;;-0.97;63.89;93592.56;5045621;28;20056;-45
2021/03/25 06:05:59;;;;;;;0.73;0.73;;;;;;;-0.55;62.79;93591.41;5047273;28;20055;-46
2021/03/25 06:08:42;;;;;;;3.55;3.22;;;;;;;-0.28;62.21;93594.47;5047137;28;20036;-47
2021/03/25 06:11:27;;;;;;;1.55;1.45;;;;;;;0.09;60.69;93602.06;5048357;28;20436;-47
2021/03/25 06:14:07;;;;;;;2.13;2.03;;;;;;;0.14;59.77;93598.63;5044521;28;20040;-51
2021/03/25 06:16:57;;;;;;;2.33;2.22;;;;;;;0.47;58.39;93607.13;5034752;27;20033;-51
2021/03/25 06:19:32;;;;;;;1.92;0.90;;;;;;;0.86;57.21;93602.75;5027617;28;20041;-53
2021/03/25 06:22:01;;;;;;;1.25;1.25;;;;;;;1.32;56.25;93600.59;5041427;28;20506;-45
2021/03/25 06:24:40;;;;;;;3.45;3.10;;;;;;;1.81;53.19;93595.91;5038835;28;20081;-45
2021/03/25 06:27:20;;;;;;;8.68;3.42;;;;;;;2.64;53.15;93590.69;5031443;28;20128;-48
2021/03/25 06:29:49;;;;;;;4.53;4.13;;;;;;;3.48;49.45;93587.44;5043047;28;20116;-46
2021/03/25 06:32:28;;;;;;;9.77;7.68;;;;;;;4.48;46.94;93587.78;5048548;28;20037;-46
2021/03/25 06:34:58;;;;;;;5.82;5.13;;;;;;;5.32;42.50;93588.66;5031294;28;20151;-49
2021/03/25 06:37:52;;;;;;;6.43;3.80;;;;;;;5.78;40.88;93586.97;5046335;28;20031;-52
2021/03/25 06:40:19;;;;;;;2.75;2.55;;;;;;;6.16;40.58;93579.59;5046092;28;20054;-52
2021/03/25 06:42:47;;;;;;;3.05;2.78;;;;;;;7.01;38.91;93587.66;5045304;28;20029;-46
2021/03/25 06:45:30;;;;;;;3.85;3.60;;;;;;;8.62;36.61;93590.25;5039352;28;20045;-46
2021/03/25 06:48:13;;;;;;;0.77;0.77;;;;;;;10.07;34.08;93591.75;5027613;28;20029;-50
2021/03/25 06:50:44;;;;;;;2.30;2.10;;;;;;;11.13;31.23;93590.25;5035201;28;20029;-47
2021/03/25 06:53:14;;;;;;;1.20;1.13;;;;;;;11.97;28.42;93591.09;5047687;28;20409;-47
2021/03/25 06:55:40;;;;;;;3.17;2.65;;;;;;;12.69;27.56;93599.66;5041614;28;20029;-46
2021/03/25 06:58:11;;;;;;;2.58;2.38;;;;;;;13.42;27.39;93595.66;5043763;28;20440;-48
2021/03/25 07:00:40;;;;;;;1.25;1.25;;;;;;;13.89;25.84;93598.28;5045851;28;20025;-50
2021/03/25 07:03:09;;;;;;;1.25;0.63;;;;;;;14.37;25.62;93601.59;5029660;28;20209;-46
2021/03/25 07:05:34;;;;;;;1.73;1.63;;;;;;;14.39;24.24;93602.50;5041753;28;20071;-49
2021/03/25 07:08:17;;;;;;;1.45;1.35;;;;;;;14.24;25.30;93599.84;5042943;28;20291;-46
2021/03/25 07:10:43;;;;;;;4.88;2.33;;;;;;;15.18;23.82;93595.69;5033939;28;20033;-49
2021/03/25 07:13:16;;;;;;;1.55;1.15;;;;;;;15.66;23.63;93595.97;5037450;28;20070;-48
2021/03/25 07:15:41;;;;;;;0.63;0.63;;;;;;;15.68;23.31;93601.72;5044150;28;20516;-46
2021/03/25 07:18:21;;;;;;;1.73;1.63;;;;;;;16.01;21.85;93607.72;5045588;28;20036;-49
2021/03/25 07:20:47;;;;;;;1.52;1.23;;;;;;;16.68;22.59;93594.72;5045805;28;20127;-45
2021/03/25 07:23:15;;;;;;;0.90;0.82;;;;;;;17.47;21.33;93603.19;5046728;28;20120;-47
2021/03/25 07:25:43;;;;;;;4.23;2.77;;;;;;;16.71;21.62;93603.97;5046937;28;20033;-45
2021/03/25 07:28:15;;;;;;;3.17;1.13;;;;;;;16.57;22.59;93595.28;5046809;28;20020;-48
2021/03/25 07:30:44;;;;;;;2.38;1.75;;;;;;;17.29;21.86;93601.91;5039286;28;20394;-49
2021/03/25 07:33:17;;;;;;;3.30;1.00;;;;;;;16.15;22.42;93596.91;5037066;28;20094;-51
2021/03/25 07:35:46;;;;;;;0.80;0.80;;;;;;;16.88;22.30;93594.72;5045907;28;20644;-51
2021/03/25 07:38:20;;;;;;;1.30;1.10;;;;;;;17.64;21.13;93599.50;5038751;28;20115;-49
2021/03/25 07:40:46;;;;;;;4.00;2.20;;;;;;;18.08;20.06;93594.94;5033299;28;20029;-44
2021/03/25 07:43:21;;;;;;;1.45;1.23;;;;;;;18.08;20.07;93594.22;5025621;28;20410;-46
2021/03/25 07:45:47;;;;;;;3.40;1.55;;;;;;;18.64;20.69;93603.66;5036146;28;20028;-45
2021/03/25 07:48:20;;;;;;;1.42;1.17;;;;;;;19.52;20.14;93596.78;5039277;28;20040;-45
2021/03/25 07:50:47;;;;;;;0.63;0.63;;;;;;;19.40;19.94;93605.19;5036105;28;20527;-45
2021/03/25 07:53:30;;;;;;;2.08;1.13;;;;;;;19.80;18.27;93606.25;5034861;28;20564;-46
2021/03/25 07:56:10;;;;;;;2.83;1.88;;;;;;;19.78;18.73;93606.13;5037155;28;20029;-46
2021/03/25 07:58:40;;;;;;;0.43;0.43;;;;;;;20.27;17.97;93600.09;5036876;28;20060;-45
2021/03/25 08:01:08;;;;;;;1.10;0.95;;;;;;;19.64;17.54;93595.47;5035578;28;20021;-44
2021/03/25 08:03:43;;;;;;;1.90;1.77;;;;;;;19.45;19.70;93606.88;5030605;28;20677;-46
2021/03/25 08:06:31;;;;;;;0.85;0.85;;;;;;;20.07;16.70;93606.53;5028261;28;20371;-45
2021/03/25 08:09:14;;;;;;;0.73;0.50;;;;;;;18.74;18.49;93606.38;5034760;28;20085;-45
2021/03/25 08:11:53;;;;;;;0.85;0.85;;;;;;;17.79;20.25;93608.28;5050868;28;20112;-44
2021/03/25 08:14:22;;;;;;;;;;;;;;;16.79;22.56;93610.13;5036091;28;20053;-45
2021/03/25 08:16:51;;;;;;;0.35;0.35;;;;;;;16.87;22.63;93607.22;5033555;28;19986;-50
2021/03/25 08:19:25;;;;;;;0.75;0.75;;;;;;;17.05;21.54;93616.88;5034963;28;20065;-48
2021/03/25 08:22:25;;;;;;;2.05;1.75;;;;;;;16.14;21.47;93604.53;5045941;28;20050;-48
2021/03/25 08:25:25;;;;;;;0.60;0.60;;;;;;;15.97;23.11;93603.88;5046213;28;20029;-46
2021/03/25 08:28:14;;;;;;;1.00;0.75;;;;;;;15.44;22.25;93602.59;5044956;28;20029;-46
2021/03/25 08:30:50;;;;;;;1.75;1.63;;;;;;;14.60;24.57;93604.88;5044109;28;20041;-47
2021/03/25 08:33:44;;;;;;;0.80;0.80;;;;;;;14.53;25.86;93613.31;5045908;28;20036;-51
2021/03/25 08:36:22;;;;;;;0.77;0.77;;;;;;;15.10;22.47;93614.50;5041579;28;20033;-51
2021/03/25 08:39:16;;;;;;;2.40;1.33;;;;;;;14.48;25.66;93611.50;5042501;28;20497;-48
2021/03/25 08:41:52;;;;;;;1.65;1.10;;;;;;;14.66;25.04;93605.38;5025057;28;20041;-50
2021/03/25 08:44:36;;;;;;;0.47;0.47;;;;;;;15.70;23.31;93603.94;5024116;28;20044;-48
2021/03/25 08:47:08;;;;;;;3.47;2.92;;;;;;;15.50;22.06;93603.09;5026096;28;20071;-51
2021/03/25 08:49:38;;;;;;;4.60;1.55;;;;;;;15.67;22.21;93602.28;5025721;28;20041;-49
2021/03/25 08:52:07;;;;;;;0.65;0.65;;;;;;;15.80;21.93;93594.31;5024392;28;20033;-48
2021/03/25 08:54:37;;;;;;;1.23;1.23;;;;;;;16.10;22.54;93595.88;5041662;28;20041;-52
2021/03/25 08:57:26;;;;;;;1.23;0.63;;;;;;;16.22;22.06;93593.28;5037402;28;20029;-50
2021/03/25 09:00:01;;;;;;;2.10;1.38;;;;;;;17.39;22.00;93597.03;5034028;28;20049;-47
2021/03/25 09:03:01;;;;;;;2.22;2.05;;;;;;;18.03;21.00;93604.38;5034791;28;20028;-53
2021/03/25 09:05:34;;;;;;;0.68;0.68;;;;;;;17.09;21.22;93603.97;5037676;28;20112;-47
2021/03/25 09:08:01;;;;;;;1.50;0.70;;;;;;;17.23;20.50;93612.63;5043527;28;20077;-56
2021/03/25 09:10:47;;;;;;;2.92;1.33;;;;;;;16.88;21.09;93605.88;5031210;28;20069;-57
2021/03/25 09:13:20;;;;;;;1.00;1.00;;;;;;;17.23;20.14;93607.78;5032868;28;20025;-49
2021/03/25 09:15:46;;;;;;;0.43;0.43;;;;;;;16.77;21.01;93612.03;5033871;28;20553;-44
2021/03/25 09:18:17;;;;;;;1.52;1.42;;;;;;;17.57;22.39;93605.97;5033191;28;20085;-47
2021/03/25 09:20:51;;;;;;;0.40;0.40;;;;;;;17.80;20.56;93604.16;5057053;28;20042;-46
2021/03/25 09:23:29;;;;;;;0.22;0.22;;;;;;;18.89;20.32;93606.72;5048888;28;20029;-46
2021/03/25 09:25:55;;;;;;;0.70;0.70;;;;;;;19.62;18.17;93600.25;5048905;28;20028;-46
2021/03/25 09:28:21;;;;;;;0.40;0.40;;;;;;;20.10;17.38;93605.31;5047321;28;20089;-46
2021/03/25 09:31:07;;;;;;;0.22;0.22;;;;;;;20.32;18.13;93576.59;5048729;28;20033;-44
2021/03/25 09:33:35;;;;;;;0.55;0.55;;;;;;;21.14;16.63;93597.56;5048230;28;20032;-52
2021/03/25 09:36:01;;;;;;;0.55;0.50;;;;;;;20.47;17.71;93597.06;5048280;28;20528;-46
2021/03/25 09:38:35;;;;;;;1.13;0.75;;;;;;;20.27;17.24;93605.00;5047315;28;20112;-56
2021/03/25 09:41:02;;;;;;;2.50;0.60;;;;;;;18.91;18.70;93612.44;5048216;28;20105;-49
2021/03/25 09:43:39;;;;;;;1.85;1.08;;;;;;;16.89;19.17;93615.72;5046244;28;20017;-52
2021/03/25 09:46:34;;;;;;;0.40;0.40;;;;;;;16.58;21.40;93610.69;5048711;28;20024;-50
2021/03/25 09:49:14;;;;;;;1.33;0.93;;;;;;;17.70;19.03;93600.66;5033372;28;20458;-50
2021/03/25 09:51:40;;;;;;;0.88;0.77;;;;;;;17.74;19.59;93614.91;5048621;28;20401;-53
2021/03/25 09:54:21;;;;;;;0.52;0.52;;;;;;;17.16;19.90;93607.94;5048254;28;20024;-49
2021/03/25 09:56:47;;;;;;;0.93;0.93;;;;;;;17.02;20.76;93598.56;5047338;28;20029;-49
2021/03/25 09:59:44;;;;;;;1.90;1.42;;;;;;;15.52;20.25;93605.28;5048372;28;20060;-51
2021/03/25 10:02:10;;;;;;;0.60;0.60;;;;;;;15.30;22.78;93611.84;5048579;28;20170;-54
2021/03/25 10:04:39;;;;;;;0.20;0.20;;;;;;;14.79;22.91;93615.44;5047361;28;20107;-52
2021/03/25 10:07:05;;;;;;;;;;;;;;;14.54;23.59;93615.50;5047070;28;20028;-47
2021/03/25 10:10:01;;;;;;;0.47;0.47;;;;;;;14.52;24.87;93618.13;5045116;28;19913;-50
2021/03/25 10:12:44;;;;;;;0.40;0.40;;;;;;;14.21;24.03;93619.66;5034375;28;20052;-52
2021/03/25 10:15:32;;;;;;;0.40;0.40;;;;;;;14.29;23.63;93621.09;5043200;28;20040;-49
2021/03/25 10:18:11;;;;;;;1.88;1.38;;;;;;;14.55;23.50;93619.75;5036764;28;20120;-50
2021/03/25 10:20:52;;;;;;;0.45;0.45;;;;;;;13.16;22.31;93619.06;5028281;28;20098;-49
2021/03/25 10:23:31;;;;;;;0.60;0.60;;;;;;;13.05;24.84;93618.75;5031385;28;20040;-51
2021/03/25 10:26:09;;;;;;;0.30;0.20;;;;;;;12.76;26.61;93615.50;5047970;28;20041;-50
2021/03/25 10:28:44;;;;;;;0.30;0.30;;;;;;;12.04;24.92;93616.00;5047836;28;20040;-51
2021/03/25 10:31:15;;;;;;;0.25;0.25;;;;;;;11.51;27.54;93617.22;5047721;28;20124;-49
2021/03/25 10:33:41;;;;;;;1.17;1.08;;;;;;;11.92;28.08;93612.13;5047488;28;20104;-51
2021/03/25 10:36:10;;;;;;;1.23;1.23;;;;;;;11.74;28.16;93618.75;5047846;28;20033;-46
2021/03/25 10:38:57;;;;;;;0.90;0.90;;;;;;;12.22;27.08;93618.94;5048023;28;20513;-44
2021/03/25 10:41:26;;;;;;;0.82;0.82;;;;;;;12.60;27.59;93614.06;5042921;28;20033;-48
2021/03/25 10:43:52;;;;;;;0.60;0.55;;;;;;;12.79;26.07;93608.84;5046246;28;20477;-45
2021/03/25 10:46:34;;;;;;;0.90;0.88;;;;;;;12.54;26.26;93611.50;5047505;28;20108;-45
2021/03/25 10:49:03;;;;;;;0.60;0.60;;;;;;;12.81;27.74;93611.78;5047564;28;20029;-47
2021/03/25 10:51:31;;;;;;;1.17;1.13;;;;;;;12.94;25.81;93612.31;5047538;28;20073;-48
2021/03/25 10:54:19;;;;;;;2.25;1.13;;;;;;;13.40;26.22;93614.88;5047760;28;20471;-51
2021/03/25 10:56:44;;;;;;;2.25;2.05;;;;;;;13.78;27.59;93609.81;5027487;28;20090;-51
2021/03/25 10:59:09;;;;;;;0.60;0.60;;;;;;;13.29;25.95;93615.31;5046696;28;20056;-49
2021/03/25 11:01:36;;;;;;;1.13;0.98;;;;;;;12.74;26.52;93613.28;5047555;28;20032;-50
2021/03/25 11:04:15;;;;;;;1.60;1.25;;;;;;;12.18;26.42;93619.31;5047336;28;20458;-48
2021/03/25 11:06:40;;;;;;;;;;;;;;;12.01;28.26;93619.88;5047771;28;20096;-50
2021/03/25 11:09:09;;;;;;;1.83;1.73;;;;;;;12.36;27.64;93612.66;5046584;28;20381;-44
2021/03/25 11:11:36;;;;;;;2.35;1.88;;;;;;;13.94;26.02;93608.41;5040969;28;20036;-45
2021/03/25 11:14:06;;;;;;;0.90;0.90;;;;;;;14.80;25.90;93611.34;5025916;28;20056;-47
2021/03/25 11:16:32;;;;;;;1.08;0.98;;;;;;;14.19;25.25;93605.59;5036532;28;20497;-47
2021/03/25 11:19:12;;;;;;;1.08;0.85;;;;;;;13.62;24.96;93597.38;5046992;28;20501;-48
2021/03/25 11:21:42;;;;;;;0.85;0.85;;;;;;;14.66;25.33;93605.38;5046076;28;20021;-51
2021/03/25 11:24:28;;;;;;;2.60;1.38;;;;;;;15.47;24.59;93595.16;5046992;28;20093;-49
2021/03/25 11:26:59;;;;;;;0.95;0.93;;;;;;;14.49;22.50;93604.63;5044742;27;20036;-51
2021/03/25 11:29:27;;;;;;;1.90;1.05;;;;;;;13.63;26.21;93621.78;5026509;28;20052;-47
2021/03/25 11:32:21;;;;;;;1.13;1.00;;;;;;;12.69;27.61;93611.44;5035452;28;20092;-48
2021/03/25 11:34:47;;;;;;;1.00;1.00;;;;;;;11.94;29.01;93617.09;5035740;28;20057;-47
2021/03/25 11:37:14;;;;;;;0.50;0.50;;;;;;;11.21;27.98;93610.38;5046532;28;20033;-48
2021/03/25 11:39:56;;;;;;;0.75;0.40;;;;;;;10.53;30.40;93606.59;5047025;28;20036;-48
2021/03/25 11:42:22;;;;;;;0.65;0.55;;;;;;;10.31;30.98;93618.28;5046095;28;20029;-46
2021/03/25 11:44:48;;;;;;;2.40;1.13;;;;;;;10.04;30.88;93609.41;5037819;28;20502;-45
2021/03/25 11:47:20;;;;;;;2.88;1.30;;;;;;;9.70;31.73;93611.56;5027118;28;20062;-47
2021/03/25 11:49:46;;;;;;;2.88;2.65;;;;;;;9.56;32.53;93612.88;5027232;28;20029;-47
2021/03/25 11:52:13;;;;;;;1.48;1.45;;;;;;;9.20;32.13;93614.75;5026843;28;20041;-48
2021/03/25 11:54:41;;;;;;;0.63;0.63;;;;;;;9.01;32.99;93607.41;5027021;28;20033;-47
2021/03/25 11:57:16;;;;;;;0.90;0.90;;;;;;;9.58;32.14;93613.09;5025793;28;20052;-50
2021/03/25 11:59:42;;;;;;;0.35;0.35;;;;;;;10.43;31.36;93609.13;5026702;28;20054;-48
2021/03/25 12:02:20;;;;;;;0.55;0.55;;;;;;;10.39;31.90;93619.03;5026913;28;20021;-47
2021/03/25 12:04:47;;;;;;;0.65;0.60;;;;;;;10.42;31.89;93610.41;5026225;28;20029;-47
2021/03/25 12:07:12;;;;;;;1.70;1.60;;;;;;;10.49;30.34;93614.50;5026677;28;20033;-48